CFMGP CYQB-CYHU
Flight info
| Callsign | CFMGP |
|---|---|
| Flight time | 0h 32m |
| Altitude | 20000 |
| Route | IGTER MISOP UKPAM TAKIN MAIRE |
| Aircraft | B350/L-SBGRWY/S |
Departure
| Time | 2026-04-21 14:36 |
|---|---|
| Airport | Quebec Jean Lesage International Airport (CYQB) |
Arrival
| Time | 2026-04-21 15:08 |
|---|---|
| Airport | Montréal / Saint-Hubert Metropolitan Airport (CYHU) |
| Time | Latitude | Longitude | Altitude | Speed | Heading |
|---|---|---|---|---|---|
| 2026-04-21 14:21 | 46.78997 | -71.38363 | 249 ft | 0 kts | 351° |
| 2026-04-21 14:33 | 46.78999 | -71.38378 | 249 ft | 7 kts | 224° |
| 2026-04-21 14:33 | 46.78943 | -71.38338 | 249 ft | 11 kts | 113° |
| 2026-04-21 14:33 | 46.78928 | -71.38227 | 249 ft | 11 kts | 96° |
| 2026-04-21 14:33 | 46.78916 | -71.38124 | 249 ft | 10 kts | 107° |
| 2026-04-21 14:34 | 46.78864 | -71.38093 | 249 ft | 9 kts | 187° |
| 2026-04-21 14:34 | 46.78804 | -71.38104 | 249 ft | 9 kts | 187° |
| 2026-04-21 14:34 | 46.78746 | -71.38115 | 249 ft | 8 kts | 187° |
| 2026-04-21 14:34 | 46.78710 | -71.38141 | 249 ft | 5 kts | 267° |
| 2026-04-21 14:35 | 46.78710 | -71.38148 | 249 ft | 0 kts | 274° |
| 2026-04-21 14:35 | 46.78718 | -71.38228 | 249 ft | 42 kts | 278° |
| 2026-04-21 14:35 | 46.78794 | -71.39083 | 306 ft | 114 kts | 277° |
| 2026-04-21 14:35 | 46.78905 | -71.40358 | 670 ft | 143 kts | 278° |
| 2026-04-21 14:36 | 46.78949 | -71.41896 | 1134 ft | 157 kts | 262° |
| 2026-04-21 14:36 | 46.78787 | -71.43452 | 1880 ft | 154 kts | 265° |
| 2026-04-21 14:36 | 46.78845 | -71.45022 | 2530 ft | 156 kts | 273° |
| 2026-04-21 14:36 | 46.78686 | -71.46544 | 3154 ft | 154 kts | 235° |
| 2026-04-21 14:37 | 46.77878 | -71.47551 | 3804 ft | 155 kts | 208° |
| 2026-04-21 14:37 | 46.76910 | -71.48269 | 4495 ft | 156 kts | 209° |
| 2026-04-21 14:37 | 46.75934 | -71.49015 | 5192 ft | 160 kts | 210° |
| 2026-04-21 14:37 | 46.74949 | -71.49789 | 5897 ft | 162 kts | 212° |
| 2026-04-21 14:38 | 46.73963 | -71.50611 | 6545 ft | 165 kts | 213° |
| 2026-04-21 14:38 | 46.72965 | -71.51460 | 7194 ft | 167 kts | 214° |
| 2026-04-21 14:38 | 46.71950 | -71.52311 | 7865 ft | 169 kts | 214° |
| 2026-04-21 14:38 | 46.70937 | -71.53183 | 8508 ft | 170 kts | 215° |
| 2026-04-21 14:39 | 46.69913 | -71.54059 | 9119 ft | 171 kts | 214° |
| 2026-04-21 14:39 | 46.68891 | -71.54926 | 9722 ft | 173 kts | 215° |
| 2026-04-21 14:39 | 46.67851 | -71.55809 | 10375 ft | 170 kts | 215° |
| 2026-04-21 14:39 | 46.66851 | -71.56653 | 11091 ft | 162 kts | 216° |
| 2026-04-21 14:40 | 46.65896 | -71.57460 | 11829 ft | 156 kts | 216° |
| 2026-04-21 14:40 | 46.64956 | -71.58264 | 12519 ft | 158 kts | 216° |
| 2026-04-21 14:40 | 46.64003 | -71.59069 | 13138 ft | 159 kts | 216° |
| 2026-04-21 14:40 | 46.63042 | -71.59887 | 13768 ft | 161 kts | 217° |
| 2026-04-21 14:41 | 46.62072 | -71.60714 | 14372 ft | 163 kts | 217° |
| 2026-04-21 14:41 | 46.61093 | -71.61544 | 14940 ft | 164 kts | 217° |
| 2026-04-21 14:41 | 46.60107 | -71.62388 | 15517 ft | 165 kts | 217° |
| 2026-04-21 14:41 | 46.59111 | -71.63238 | 16075 ft | 166 kts | 217° |
| 2026-04-21 14:42 | 46.58448 | -71.63804 | 16466 ft | 168 kts | 218° |
| 2026-04-21 14:42 | 46.57437 | -71.64663 | 17070 ft | 169 kts | 218° |
| 2026-04-21 14:42 | 46.56417 | -71.65524 | 17671 ft | 171 kts | 218° |
| 2026-04-21 14:42 | 46.55381 | -71.66402 | 18241 ft | 173 kts | 218° |
| 2026-04-21 14:43 | 46.54338 | -71.67287 | 18816 ft | 174 kts | 219° |
| 2026-04-21 14:43 | 46.53291 | -71.68174 | 19335 ft | 175 kts | 218° |
| 2026-04-21 14:43 | 46.52233 | -71.69065 | 19858 ft | 176 kts | 218° |
| 2026-04-21 14:43 | 46.51165 | -71.69970 | 20298 ft | 184 kts | 218° |
| 2026-04-21 14:44 | 46.49990 | -71.70984 | 20351 ft | 209 kts | 217° |
| 2026-04-21 14:44 | 46.48671 | -71.72118 | 20371 ft | 230 kts | 217° |
| 2026-04-21 14:44 | 46.47236 | -71.73337 | 20380 ft | 247 kts | 216° |
| 2026-04-21 14:44 | 46.45724 | -71.74612 | 20383 ft | 260 kts | 216° |
| 2026-04-21 14:45 | 46.44132 | -71.75951 | 20381 ft | 270 kts | 215° |
| 2026-04-21 14:45 | 46.42484 | -71.77332 | 20379 ft | 277 kts | 215° |
| 2026-04-21 14:45 | 46.40800 | -71.78744 | 20374 ft | 282 kts | 215° |
| 2026-04-21 14:45 | 46.39177 | -71.80328 | 20384 ft | 281 kts | 226° |
| 2026-04-21 14:46 | 46.37886 | -71.82427 | 20380 ft | 280 kts | 237° |
| 2026-04-21 14:46 | 46.36688 | -71.84671 | 20373 ft | 282 kts | 236° |
| 2026-04-21 14:46 | 46.35467 | -71.86903 | 20379 ft | 284 kts | 235° |
| 2026-04-21 14:46 | 46.34239 | -71.89143 | 20375 ft | 285 kts | 236° |
| 2026-04-21 14:47 | 46.33008 | -71.91392 | 20376 ft | 285 kts | 236° |
| 2026-04-21 14:47 | 46.31774 | -71.93645 | 20377 ft | 286 kts | 236° |
| 2026-04-21 14:47 | 46.30525 | -71.95914 | 20205 ft | 292 kts | 235° |
| 2026-04-21 14:47 | 46.29245 | -71.98259 | 19840 ft | 302 kts | 236° |
| 2026-04-21 14:48 | 46.27932 | -72.00684 | 19457 ft | 309 kts | 236° |
| 2026-04-21 14:48 | 46.26589 | -72.03144 | 19082 ft | 314 kts | 236° |
| 2026-04-21 14:48 | 46.25231 | -72.05623 | 18715 ft | 315 kts | 236° |
| 2026-04-21 14:48 | 46.23872 | -72.08097 | 18300 ft | 315 kts | 236° |
| 2026-04-21 14:49 | 46.22522 | -72.10545 | 17885 ft | 316 kts | 236° |
| 2026-04-21 14:49 | 46.21151 | -72.13029 | 17470 ft | 316 kts | 235° |
| 2026-04-21 14:49 | 46.19782 | -72.15511 | 17066 ft | 316 kts | 235° |
| 2026-04-21 14:49 | 46.18428 | -72.17954 | 16643 ft | 308 kts | 235° |
| 2026-04-21 14:50 | 46.17108 | -72.20335 | 16167 ft | 301 kts | 235° |
| 2026-04-21 14:50 | 46.15816 | -72.22668 | 15691 ft | 295 kts | 235° |
| 2026-04-21 14:50 | 46.14543 | -72.24967 | 15230 ft | 291 kts | 235° |
| 2026-04-21 14:50 | 46.13285 | -72.27239 | 14778 ft | 288 kts | 235° |
| 2026-04-21 14:51 | 46.12041 | -72.29482 | 14327 ft | 285 kts | 235° |
| 2026-04-21 14:51 | 46.10907 | -72.31527 | 13881 ft | 283 kts | 235° |
| 2026-04-21 14:51 | 46.09683 | -72.33737 | 13392 ft | 281 kts | 234° |
| 2026-04-21 14:51 | 46.08456 | -72.35929 | 12889 ft | 280 kts | 235° |
| 2026-04-21 14:52 | 46.07247 | -72.38119 | 12404 ft | 278 kts | 234° |
| 2026-04-21 14:52 | 46.06040 | -72.40289 | 11924 ft | 277 kts | 235° |
| 2026-04-21 14:52 | 46.04856 | -72.42432 | 11459 ft | 276 kts | 234° |
| 2026-04-21 14:52 | 46.03657 | -72.44579 | 10987 ft | 275 kts | 234° |
| 2026-04-21 14:53 | 46.02460 | -72.46716 | 10529 ft | 273 kts | 234° |
| 2026-04-21 14:53 | 46.01268 | -72.48847 | 10073 ft | 273 kts | 234° |
| 2026-04-21 14:53 | 46.00085 | -72.50979 | 9586 ft | 271 kts | 234° |
| 2026-04-21 14:53 | 45.98913 | -72.53086 | 9128 ft | 268 kts | 234° |
| 2026-04-21 14:54 | 45.97749 | -72.55166 | 8688 ft | 266 kts | 235° |
| 2026-04-21 14:54 | 45.96701 | -72.57292 | 8277 ft | 262 kts | 238° |
| 2026-04-21 14:54 | 45.95700 | -72.59468 | 7843 ft | 260 kts | 238° |
| 2026-04-21 14:54 | 45.94697 | -72.61623 | 7452 ft | 258 kts | 238° |
| 2026-04-21 14:55 | 45.93715 | -72.63777 | 7030 ft | 257 kts | 238° |
| 2026-04-21 14:55 | 45.92714 | -72.65903 | 6624 ft | 256 kts | 238° |
| 2026-04-21 14:55 | 45.91722 | -72.68016 | 6225 ft | 255 kts | 237° |
| 2026-04-21 14:55 | 45.90724 | -72.70128 | 5849 ft | 255 kts | 237° |
| 2026-04-21 14:56 | 45.89737 | -72.72239 | 5417 ft | 254 kts | 237° |
| 2026-04-21 14:56 | 45.88766 | -72.74351 | 5044 ft | 251 kts | 237° |
| 2026-04-21 14:56 | 45.87819 | -72.76370 | 5033 ft | 238 kts | 236° |
| 2026-04-21 14:56 | 45.86900 | -72.78295 | 5065 ft | 229 kts | 232° |
| 2026-04-21 14:57 | 45.85940 | -72.80076 | 5041 ft | 223 kts | 237° |
| 2026-04-21 14:57 | 45.85142 | -72.81964 | 5057 ft | 220 kts | 240° |
| 2026-04-21 14:57 | 45.84345 | -72.83834 | 5058 ft | 219 kts | 238° |
| 2026-04-21 14:57 | 45.83509 | -72.85654 | 5038 ft | 217 kts | 237° |
| 2026-04-21 14:58 | 45.82650 | -72.87432 | 5052 ft | 217 kts | 236° |
| 2026-04-21 14:58 | 45.81823 | -72.89192 | 5047 ft | 215 kts | 237° |
| 2026-04-21 14:58 | 45.80987 | -72.90966 | 5018 ft | 214 kts | 236° |
| 2026-04-21 14:58 | 45.80133 | -72.92716 | 5005 ft | 213 kts | 236° |
| 2026-04-21 14:59 | 45.79300 | -72.94469 | 5020 ft | 212 kts | 237° |
| 2026-04-21 14:59 | 45.78473 | -72.96231 | 5004 ft | 217 kts | 237° |
| 2026-04-21 14:59 | 45.77606 | -72.98072 | 4558 ft | 226 kts | 236° |
| 2026-04-21 14:59 | 45.76704 | -72.99969 | 4112 ft | 235 kts | 235° |
| 2026-04-21 15:00 | 45.75796 | -73.01872 | 3668 ft | 228 kts | 235° |
| 2026-04-21 15:00 | 45.74898 | -73.03717 | 3178 ft | 224 kts | 235° |
| 2026-04-21 15:00 | 45.74085 | -73.05541 | 3084 ft | 208 kts | 236° |
| 2026-04-21 15:00 | 45.73305 | -73.07203 | 3079 ft | 194 kts | 234° |
| 2026-04-21 15:01 | 45.72563 | -73.08744 | 3089 ft | 183 kts | 233° |
| 2026-04-21 15:01 | 45.72088 | -73.09725 | 3036 ft | 177 kts | 234° |
| 2026-04-21 15:01 | 45.71756 | -73.10413 | 3017 ft | 176 kts | 233° |
| 2026-04-21 15:02 | 45.71076 | -73.11858 | 3150 ft | 191 kts | 233° |
| 2026-04-21 15:02 | 45.70190 | -73.13310 | 3138 ft | 196 kts | 221° |
| 2026-04-21 15:02 | 45.69181 | -73.14646 | 3187 ft | 200 kts | 223° |
| 2026-04-21 15:02 | 45.68201 | -73.16037 | 3176 ft | 202 kts | 224° |
| 2026-04-21 15:03 | 45.67202 | -73.17471 | 3230 ft | 205 kts | 224° |
| 2026-04-21 15:03 | 45.66186 | -73.18917 | 3195 ft | 205 kts | 224° |
| 2026-04-21 15:03 | 45.65204 | -73.20302 | 3092 ft | 192 kts | 223° |
| 2026-04-21 15:03 | 45.64281 | -73.21587 | 3054 ft | 178 kts | 224° |
| 2026-04-21 15:04 | 45.63456 | -73.22862 | 3130 ft | 174 kts | 227° |
| 2026-04-21 15:04 | 45.62684 | -73.24102 | 3153 ft | 163 kts | 226° |
| 2026-04-21 15:04 | 45.61969 | -73.25217 | 3187 ft | 159 kts | 226° |
| 2026-04-21 15:04 | 45.61214 | -73.26388 | 3045 ft | 162 kts | 226° |
| 2026-04-21 15:05 | 45.60456 | -73.27551 | 2755 ft | 158 kts | 225° |
| 2026-04-21 15:05 | 45.58977 | -73.29796 | 2312 ft | 155 kts | 225° |
| 2026-04-21 15:05 | 45.58238 | -73.30943 | 2106 ft | 158 kts | 227° |
| 2026-04-21 15:06 | 45.57511 | -73.32107 | 1872 ft | 156 kts | 223° |
| 2026-04-21 15:06 | 45.56748 | -73.33183 | 1634 ft | 152 kts | 221° |
| 2026-04-21 15:06 | 45.56041 | -73.34268 | 1378 ft | 144 kts | 229° |
| 2026-04-21 15:06 | 45.55429 | -73.35284 | 1194 ft | 127 kts | 225° |
| 2026-04-21 15:07 | 45.54847 | -73.36158 | 995 ft | 118 kts | 221° |
| 2026-04-21 15:07 | 45.54267 | -73.36968 | 859 ft | 118 kts | 224° |
| 2026-04-21 15:07 | 45.53722 | -73.37853 | 653 ft | 117 kts | 225° |
| 2026-04-21 15:07 | 45.53182 | -73.38688 | 464 ft | 111 kts | 222° |
| 2026-04-21 15:08 | 45.52648 | -73.39474 | 325 ft | 110 kts | 223° |
| 2026-04-21 15:08 | 45.52129 | -73.40261 | 174 ft | 110 kts | 224° |
| 2026-04-21 15:08 | 45.51679 | -73.40944 | 94 ft | 65 kts | 225° |
| 2026-04-21 15:08 | 45.51557 | -73.41137 | 94 ft | 7 kts | 233° |
| 2026-04-21 15:09 | 45.51501 | -73.41217 | 95 ft | 17 kts | 226° |
| 2026-04-21 15:09 | 45.51443 | -73.41262 | 93 ft | 7 kts | 155° |
| 2026-04-21 15:09 | 45.51412 | -73.41183 | 96 ft | 13 kts | 63° |
| 2026-04-21 15:09 | 45.51481 | -73.41071 | 94 ft | 16 kts | 46° |
| 2026-04-21 15:10 | 45.51562 | -73.40950 | 95 ft | 18 kts | 48° |
| 2026-04-21 15:10 | 45.51647 | -73.40821 | 96 ft | 18 kts | 46° |
| 2026-04-21 15:10 | 45.51726 | -73.40696 | 94 ft | 17 kts | 46° |
| 2026-04-21 15:10 | 45.51808 | -73.40579 | 95 ft | 16 kts | 46° |
| 2026-04-21 15:11 | 45.51886 | -73.40462 | 95 ft | 16 kts | 48° |
| 2026-04-21 15:11 | 45.51938 | -73.40332 | 94 ft | 15 kts | 70° |
| 2026-04-21 15:11 | 45.51997 | -73.40218 | 95 ft | 14 kts | 45° |
| 2026-04-21 15:11 | 45.52055 | -73.40140 | 95 ft | 11 kts | 45° |
| 2026-04-21 15:12 | 45.52105 | -73.40056 | 94 ft | 12 kts | 46° |
| 2026-04-21 15:12 | 45.52163 | -73.39973 | 94 ft | 12 kts | 46° |
| 2026-04-21 15:12 | 45.52221 | -73.39884 | 96 ft | 13 kts | 47° |
| 2026-04-21 15:12 | 45.52237 | -73.39843 | 96 ft | 4 kts | 248° |
| 2026-04-21 15:13 | 45.52189 | -73.39933 | 97 ft | 14 kts | 225° |
| 2026-04-21 15:13 | 45.52124 | -73.40031 | 96 ft | 14 kts | 227° |
| 2026-04-21 15:13 | 45.52051 | -73.40138 | 96 ft | 16 kts | 225° |
| 2026-04-21 15:13 | 45.51981 | -73.40246 | 95 ft | 14 kts | 227° |
| 2026-04-21 15:14 | 45.51934 | -73.40349 | 94 ft | 12 kts | 257° |
| 2026-04-21 15:14 | 45.51889 | -73.40452 | 96 ft | 14 kts | 219° |
| 2026-04-21 15:14 | 45.51825 | -73.40548 | 95 ft | 12 kts | 226° |
| 2026-04-21 15:14 | 45.51769 | -73.40632 | 94 ft | 11 kts | 227° |
| 2026-04-21 15:15 | 45.51710 | -73.40721 | 95 ft | 14 kts | 227° |
| 2026-04-21 15:15 | 45.51648 | -73.40820 | 113 ft | 13 kts | 224° |
| 2026-04-21 15:15 | 45.51590 | -73.40905 | 110 ft | 11 kts | 227° |
| 2026-04-21 15:15 | 45.51548 | -73.40884 | 94 ft | 10 kts | 135° |
| 2026-04-21 15:16 | 45.51499 | -73.40801 | 96 ft | 10 kts | 78° |
| 2026-04-21 15:16 | 45.51520 | -73.40752 | 95 ft | 0 kts | 46° |